Friday, January 19, 2018, 7:33 AM GMT
Back to Local

CWNH, Riviere Du Loup, Que.

Location: , , Canada Lat: 47.8
Local Time: 7:33 AM GMT ( 7:33 GMT) Lon: -69.55
Time Zone: GMT Elev: 485 ft

Show me the last for .
Show Coded

Time T Td Feel RH Dir Speed Gust Alt SLP Vis Weather Sky Remarks
2018-01-19 07:00 9 6 - 84 - Calm - - 29.88 0 None
2018-01-19 06:00 9 5 - 86 - Calm - - 29.88 0 None
2018-01-19 05:00 9 6 - 85 - Calm - - 29.87 0 None
2018-01-19 04:00 10 6 - 84 - Calm - - 29.88 0 None
2018-01-19 03:00 13 8 - 79 - Calm - - 29.88 0 None
2018-01-19 02:00 14 10 - 83 - Calm - - 29.86 0 None
2018-01-19 01:00 16 12 - 85 330° 1 - - 29.85 0 None
2018-01-19 00:00 16 13 - 87 - Calm - - 29.85 0 None
2018-01-18 23:00 19 15 - 82 20° 1 - - 29.84 0 None
2018-01-18 22:00 23 19 - 86 - Calm - - 29.80 0 None
2018-01-18 21:00 23 19 - 84 210° 1 - - 29.80 0 None
2018-01-18 20:00 23 18 - 81 230° 2 - - 29.78 0 None
2018-01-18 19:00 23 17 - 77 220° 2 - - 29.76 0 1-hr Precip Total: 0.02"
2018-01-18 18:00 23 18 - 78 210° 1 - - 29.75 0 1-hr Precip Total: 0.01"
2018-01-18 17:00 23 17 - 77 210° 2 - - 29.75 0 1-hr Precip Total: 0.02"
2018-01-18 16:00 22 17 - 79 210° 2 - - 29.77 0 None
2018-01-18 15:00 21 16 - 81 210° 2 - - 29.78 0 None
2018-01-18 14:00 20 16 - 84 200° 2 - - 29.77 0 None
2018-01-18 13:00 20 16 - 85 210° 2 - - 29.77 0 None
2018-01-18 12:00 19 16 - 84 200° 2 - - 29.77 0 None
2018-01-18 11:00 19 15 - 84 200° 2 - - 29.78 0 None
2018-01-18 10:00 18 15 - 85 200° 2 - - 29.80 0 None
2018-01-18 09:00 18 14 - 83 200° 2 - - 29.81 0 None
2018-01-18 08:00 18 13 - 81 200° 2 - - 29.84 0 None

Support USWX by starting your Amazon purchase here.